Aérodrome :
LOGIN :

S'inscrire | Disclaimer

   EN    FR    IT 

 










Légende :    VFR   VFR Marginal   IFR   IFR Intensif   IFR Très Intensif
Visi : 
Plafond : 
>= 8 km
>= 3000ft
5 à 8 km
1000 à 3000 ft
1500m à 5 km
500 à 1000 ft
800 à 1500m
200 à 500 ft
< 800m
< 200 ft
Symboles :   Orages  Brouillard  Fortes neiges  Fortes précipitations  Vent > 20 kt
SIGMETs :   Divers  Orages  Givrage  Turbulence  Onde Orograph.  Cendres Volcan.







- Altitude de l'aérodrome : 1090 ft
- Code IATA : CFE
- Voir les cartes d'approche


LFLC - Clermont-Ferrand Auvergne

DERNIER METAR :
  • 161600Z AUTO 05005KT CAVOK 19/M06 Q1024 NOSIG

METARs EXPIRÉS :
  • 161530Z AUTO 04004KT 010V090 CAVOK 21/M05 Q1025 NOSIG
  • 161500Z AUTO VRB03KT CAVOK 21/M08 Q1025 NOSIG
  • 161430Z AUTO 21003KT 150V260 CAVOK 21/M09 Q1025 NOSIG
  • 161400Z AUTO 20004KT 170V250 CAVOK 20/M09 Q1025 NOSIG
  • 161330Z AUTO 21004KT 170V250 9999 2700 NSC 20/M10 Q1026 NOSIG
  • 161300Z AUTO 16006KT 080V200 CAVOK 19/M10 Q1026 NOSIG

TAF TAF LFLC
Valide du 16 à 15h jusqu'au 17 à 15h UTC


161400Z 1615/1715 VRB03KT CAVOK
BECMG 1618/1621 18010KT
PROB40
TEMPO 1706/1713 18015G25KT
ATIS : +33 4 73 62 74 38
Pas de NOTAMs connus pour ce terrain.



MET'MAP, la Météo Aéronautique d'un coup d'oeil ! - Copyright ORBIFLY Décembre 2007 - Disclaimer

ORBIFLY MET'MAP TEAM :

Programmation & Développement : Alexandra Zaïnal
Conception & Développement : Baudouin d'Aumeries
Co-Programmation & Développement : Marc-Olivier Méhu
Soutien technique & logistique : Manuel Goepfert

Contact : metmap@orbifly.com




SOURCES & CREDITS :

   NOAA